sensor_id;sensor_type;location;lat;lon;timestamp;P1;durP1;ratioP1;P2;durP2;ratioP2
30647;SDS011;17683;53.360;9.736;2023-08-30T00:00:46;3.35;;;2.10;;
30647;SDS011;17683;53.360;9.736;2023-08-30T00:03:12;4.82;;;2.30;;
30647;SDS011;17683;53.360;9.736;2023-08-30T00:05:38;2.03;;;1.70;;
30647;SDS011;17683;53.360;9.736;2023-08-30T00:08:05;2.25;;;1.85;;
30647;SDS011;17683;53.360;9.736;2023-08-30T00:10:31;2.08;;;1.88;;
30647;SDS011;17683;53.360;9.736;2023-08-30T00:12:57;2.80;;;2.10;;
30647;SDS011;17683;53.360;9.736;2023-08-30T00:15:23;2.63;;;1.90;;
30647;SDS011;17683;53.360;9.736;2023-08-30T00:17:49;3.78;;;2.13;;
30647;SDS011;17683;53.360;9.736;2023-08-30T00:20:17;3.70;;;1.83;;
30647;SDS011;17683;53.360;9.736;2023-08-30T00:22:43;2.65;;;1.80;;
30647;SDS011;17683;53.360;9.736;2023-08-30T00:25:09;3.30;;;2.20;;
30647;SDS011;17683;53.360;9.736;2023-08-30T00:27:35;1.60;;;1.50;;
30647;SDS011;17683;53.360;9.736;2023-08-30T00:30:01;4.00;;;2.03;;
30647;SDS011;17683;53.360;9.736;2023-08-30T00:32:27;3.42;;;1.73;;
30647;SDS011;17683;53.360;9.736;2023-08-30T00:34:52;3.17;;;1.75;;
30647;SDS011;17683;53.360;9.736;2023-08-30T00:37:18;1.70;;;1.58;;
30647;SDS011;17683;53.360;9.736;2023-08-30T00:39:44;2.60;;;1.65;;
30647;SDS011;17683;53.360;9.736;2023-08-30T00:42:10;2.60;;;1.55;;
30647;SDS011;17683;53.360;9.736;2023-08-30T00:44:35;4.80;;;2.30;;
30647;SDS011;17683;53.360;9.736;2023-08-30T00:47:01;2.30;;;2.10;;
30647;SDS011;17683;53.360;9.736;2023-08-30T00:49:31;2.53;;;1.65;;
30647;SDS011;17683;53.360;9.736;2023-08-30T00:52:01;2.10;;;1.90;;
30647;SDS011;17683;53.360;9.736;2023-08-30T00:54:28;2.05;;;1.85;;
30647;SDS011;17683;53.360;9.736;2023-08-30T00:56:54;3.65;;;1.75;;
30647;SDS011;17683;53.360;9.736;2023-08-30T00:59:21;2.17;;;1.92;;
30647;SDS011;17683;53.360;9.736;2023-08-30T01:01:48;3.30;;;2.50;;
30647;SDS011;17683;53.360;9.736;2023-08-30T01:04:14;2.20;;;1.92;;
30647;SDS011;17683;53.360;9.736;2023-08-30T01:06:41;2.40;;;2.03;;
30647;SDS011;17683;53.360;9.736;2023-08-30T01:09:07;3.13;;;1.65;;
30647;SDS011;17683;53.360;9.736;2023-08-30T01:14:45;3.03;;;1.45;;
30647;SDS011;17683;53.360;9.736;2023-08-30T01:17:17;1.67;;;1.55;;
30647;SDS011;17683;53.360;9.736;2023-08-30T01:19:50;2.85;;;1.63;;
30647;SDS011;17683;53.360;9.736;2023-08-30T01:28:11;5.93;;;2.15;;
30647;SDS011;17683;53.360;9.736;2023-08-30T01:30:40;2.58;;;1.88;;
30647;SDS011;17683;53.360;9.736;2023-08-30T01:33:07;4.65;;;2.45;;
30647;SDS011;17683;53.360;9.736;2023-08-30T01:35:34;4.78;;;2.58;;
30647;SDS011;17683;53.360;9.736;2023-08-30T01:38:04;3.25;;;2.40;;
30647;SDS011;17683;53.360;9.736;2023-08-30T01:40:33;5.00;;;2.85;;
30647;SDS011;17683;53.360;9.736;2023-08-30T01:43:01;3.80;;;2.22;;
30647;SDS011;17683;53.360;9.736;2023-08-30T01:45:31;4.13;;;2.17;;
30647;SDS011;17683;53.360;9.736;2023-08-30T01:47:59;4.72;;;2.03;;
30647;SDS011;17683;53.360;9.736;2023-08-30T01:50:26;2.22;;;2.03;;
30647;SDS011;17683;53.360;9.736;2023-08-30T01:52:52;4.20;;;2.30;;
30647;SDS011;17683;53.360;9.736;2023-08-30T01:55:20;3.80;;;2.60;;
30647;SDS011;17683;53.360;9.736;2023-08-30T01:57:48;6.60;;;2.10;;
30647;SDS011;17683;53.360;9.736;2023-08-30T02:00:14;4.38;;;2.92;;
30647;SDS011;17683;53.360;9.736;2023-08-30T02:02:40;3.72;;;2.40;;
30647;SDS011;17683;53.360;9.736;2023-08-30T02:05:06;7.60;;;3.13;;
30647;SDS011;17683;53.360;9.736;2023-08-30T02:10:28;3.20;;;2.63;;
30647;SDS011;17683;53.360;9.736;2023-08-30T02:15:26;3.33;;;2.47;;
30647;SDS011;17683;53.360;9.736;2023-08-30T02:17:54;8.07;;;3.10;;
30647;SDS011;17683;53.360;9.736;2023-08-30T02:20:21;5.70;;;3.72;;
30647;SDS011;17683;53.360;9.736;2023-08-30T02:22:47;6.35;;;3.47;;
30647;SDS011;17683;53.360;9.736;2023-08-30T02:25:12;6.13;;;4.20;;
30647;SDS011;17683;53.360;9.736;2023-08-30T02:27:38;3.83;;;3.30;;
30647;SDS011;17683;53.360;9.736;2023-08-30T02:30:04;5.32;;;4.82;;
30647;SDS011;17683;53.360;9.736;2023-08-30T02:32:30;5.70;;;3.97;;
30647;SDS011;17683;53.360;9.736;2023-08-30T02:34:56;5.05;;;3.80;;
30647;SDS011;17683;53.360;9.736;2023-08-30T02:37:22;4.15;;;3.75;;
30647;SDS011;17683;53.360;9.736;2023-08-30T02:39:48;4.95;;;3.78;;
30647;SDS011;17683;53.360;9.736;2023-08-30T02:42:14;4.50;;;3.78;;
30647;SDS011;17683;53.360;9.736;2023-08-30T02:44:40;6.88;;;3.75;;
30647;SDS011;17683;53.360;9.736;2023-08-30T02:47:06;4.93;;;4.20;;
30647;SDS011;17683;53.360;9.736;2023-08-30T02:49:31;5.10;;;4.60;;
30647;SDS011;17683;53.360;9.736;2023-08-30T02:51:57;6.93;;;4.95;;
30647;SDS011;17683;53.360;9.736;2023-08-30T02:54:23;5.65;;;4.25;;
30647;SDS011;17683;53.360;9.736;2023-08-30T02:56:49;5.13;;;4.63;;
30647;SDS011;17683;53.360;9.736;2023-08-30T02:59:15;6.60;;;5.30;;
30647;SDS011;17683;53.360;9.736;2023-08-30T03:01:41;6.20;;;5.18;;
30647;SDS011;17683;53.360;9.736;2023-08-30T03:04:07;7.13;;;4.88;;
30647;SDS011;17683;53.360;9.736;2023-08-30T03:06:33;5.65;;;5.05;;
30647;SDS011;17683;53.360;9.736;2023-08-30T03:09:00;5.97;;;5.38;;
30647;SDS011;17683;53.360;9.736;2023-08-30T03:11:26;7.53;;;5.32;;
30647;SDS011;17683;53.360;9.736;2023-08-30T03:13:53;9.00;;;6.20;;
30647;SDS011;17683;53.360;9.736;2023-08-30T03:16:19;6.90;;;5.38;;
30647;SDS011;17683;53.360;9.736;2023-08-30T03:18:45;6.85;;;6.15;;
30647;SDS011;17683;53.360;9.736;2023-08-30T03:21:12;6.63;;;6.03;;
30647;SDS011;17683;53.360;9.736;2023-08-30T03:23:38;7.07;;;6.00;;
30647;SDS011;17683;53.360;9.736;2023-08-30T03:26:08;6.63;;;5.93;;
30647;SDS011;17683;53.360;9.736;2023-08-30T03:28:38;7.75;;;6.70;;
30647;SDS011;17683;53.360;9.736;2023-08-30T03:31:12;7.22;;;6.47;;
30647;SDS011;17683;53.360;9.736;2023-08-30T03:33:41;10.50;;;8.38;;
30647;SDS011;17683;53.360;9.736;2023-08-30T03:36:11;7.28;;;6.25;;
30647;SDS011;17683;53.360;9.736;2023-08-30T03:38:37;8.70;;;7.45;;
30647;SDS011;17683;53.360;9.736;2023-08-30T03:41:04;9.00;;;7.35;;
30647;SDS011;17683;53.360;9.736;2023-08-30T03:43:30;11.88;;;10.05;;
30647;SDS011;17683;53.360;9.736;2023-08-30T03:45:56;8.52;;;7.72;;
30647;SDS011;17683;53.360;9.736;2023-08-30T03:48:23;8.63;;;7.72;;
30647;SDS011;17683;53.360;9.736;2023-08-30T03:50:48;7.93;;;7.13;;
30647;SDS011;17683;53.360;9.736;2023-08-30T03:53:14;8.30;;;7.50;;
30647;SDS011;17683;53.360;9.736;2023-08-30T03:55:40;9.75;;;7.10;;
30647;SDS011;17683;53.360;9.736;2023-08-30T03:58:06;7.60;;;6.78;;
30647;SDS011;17683;53.360;9.736;2023-08-30T04:00:32;8.43;;;6.82;;
30647;SDS011;17683;53.360;9.736;2023-08-30T04:03:01;10.38;;;8.65;;
30647;SDS011;17683;53.360;9.736;2023-08-30T04:05:27;10.10;;;8.18;;
30647;SDS011;17683;53.360;9.736;2023-08-30T04:07:56;10.10;;;7.95;;
30647;SDS011;17683;53.360;9.736;2023-08-30T04:10:22;8.80;;;7.82;;
30647;SDS011;17683;53.360;9.736;2023-08-30T04:12:48;8.60;;;7.72;;
30647;SDS011;17683;53.360;9.736;2023-08-30T04:15:13;9.05;;;8.07;;
30647;SDS011;17683;53.360;9.736;2023-08-30T04:17:40;10.77;;;8.68;;
30647;SDS011;17683;53.360;9.736;2023-08-30T04:20:06;7.78;;;6.78;;
30647;SDS011;17683;53.360;9.736;2023-08-30T04:22:32;8.70;;;7.90;;
30647;SDS011;17683;53.360;9.736;2023-08-30T04:24:59;10.90;;;7.75;;
30647;SDS011;17683;53.360;9.736;2023-08-30T04:27:25;8.82;;;7.93;;
30647;SDS011;17683;53.360;9.736;2023-08-30T04:29:52;8.02;;;7.22;;
30647;SDS011;17683;53.360;9.736;2023-08-30T04:32:17;9.18;;;8.27;;
30647;SDS011;17683;53.360;9.736;2023-08-30T04:34:43;10.98;;;8.15;;
30647;SDS011;17683;53.360;9.736;2023-08-30T04:37:09;7.45;;;6.65;;
30647;SDS011;17683;53.360;9.736;2023-08-30T04:39:34;11.00;;;8.80;;
30647;SDS011;17683;53.360;9.736;2023-08-30T04:42:00;11.18;;;7.68;;
30647;SDS011;17683;53.360;9.736;2023-08-30T04:44:27;10.90;;;8.73;;
30647;SDS011;17683;53.360;9.736;2023-08-30T04:46:54;8.93;;;8.02;;
30647;SDS011;17683;53.360;9.736;2023-08-30T04:49:20;10.25;;;8.88;;
30647;SDS011;17683;53.360;9.736;2023-08-30T04:51:46;9.05;;;8.15;;
30647;SDS011;17683;53.360;9.736;2023-08-30T04:54:12;9.80;;;8.80;;
30647;SDS011;17683;53.360;9.736;2023-08-30T04:56:39;10.48;;;9.48;;
30647;SDS011;17683;53.360;9.736;2023-08-30T04:59:04;9.32;;;8.43;;
30647;SDS011;17683;53.360;9.736;2023-08-30T05:01:30;10.55;;;9.45;;
30647;SDS011;17683;53.360;9.736;2023-08-30T05:03:56;8.48;;;7.63;;
30647;SDS011;17683;53.360;9.736;2023-08-30T05:06:21;9.20;;;8.30;;
30647;SDS011;17683;53.360;9.736;2023-08-30T05:08:47;11.05;;;9.95;;
30647;SDS011;17683;53.360;9.736;2023-08-30T05:11:13;11.18;;;9.30;;
30647;SDS011;17683;53.360;9.736;2023-08-30T05:13:38;12.93;;;10.77;;
30647;SDS011;17683;53.360;9.736;2023-08-30T05:16:04;13.95;;;10.00;;
30647;SDS011;17683;53.360;9.736;2023-08-30T05:18:30;9.25;;;8.43;;
30647;SDS011;17683;53.360;9.736;2023-08-30T05:20:56;9.98;;;8.95;;
30647;SDS011;17683;53.360;9.736;2023-08-30T05:23:21;11.15;;;9.95;;
30647;SDS011;17683;53.360;9.736;2023-08-30T05:25:47;10.50;;;9.07;;
30647;SDS011;17683;53.360;9.736;2023-08-30T05:28:13;10.30;;;8.82;;
30647;SDS011;17683;53.360;9.736;2023-08-30T05:30:41;10.27;;;8.50;;
30647;SDS011;17683;53.360;9.736;2023-08-30T05:33:09;12.50;;;9.90;;
30647;SDS011;17683;53.360;9.736;2023-08-30T05:35:34;11.02;;;9.45;;
30647;SDS011;17683;53.360;9.736;2023-08-30T05:38:00;10.27;;;7.80;;
30647;SDS011;17683;53.360;9.736;2023-08-30T05:40:26;10.02;;;8.77;;
30647;SDS011;17683;53.360;9.736;2023-08-30T05:42:51;13.02;;;10.13;;
30647;SDS011;17683;53.360;9.736;2023-08-30T05:45:17;9.18;;;8.27;;
30647;SDS011;17683;53.360;9.736;2023-08-30T05:47:43;11.60;;;8.85;;
30647;SDS011;17683;53.360;9.736;2023-08-30T05:50:08;11.48;;;8.10;;
30647;SDS011;17683;53.360;9.736;2023-08-30T05:52:34;9.13;;;8.23;;
30647;SDS011;17683;53.360;9.736;2023-08-30T05:55:00;11.13;;;9.82;;
30647;SDS011;17683;53.360;9.736;2023-08-30T05:57:26;10.20;;;8.82;;
30647;SDS011;17683;53.360;9.736;2023-08-30T05:59:54;8.88;;;7.97;;
30647;SDS011;17683;53.360;9.736;2023-08-30T06:02:19;10.63;;;9.30;;
30647;SDS011;17683;53.360;9.736;2023-08-30T06:04:45;10.77;;;9.73;;
30647;SDS011;17683;53.360;9.736;2023-08-30T06:07:10;10.70;;;8.82;;
30647;SDS011;17683;53.360;9.736;2023-08-30T06:09:36;11.95;;;8.88;;
30647;SDS011;17683;53.360;9.736;2023-08-30T06:12:02;9.57;;;8.48;;
30647;SDS011;17683;53.360;9.736;2023-08-30T06:14:28;9.68;;;8.57;;
30647;SDS011;17683;53.360;9.736;2023-08-30T06:16:54;10.90;;;9.60;;
30647;SDS011;17683;53.360;9.736;2023-08-30T06:19:20;9.18;;;7.75;;
30647;SDS011;17683;53.360;9.736;2023-08-30T06:21:45;9.30;;;8.43;;
30647;SDS011;17683;53.360;9.736;2023-08-30T06:24:11;13.10;;;9.50;;
30647;SDS011;17683;53.360;9.736;2023-08-30T06:26:36;12.75;;;9.82;;
30647;SDS011;17683;53.360;9.736;2023-08-30T06:29:02;11.40;;;7.93;;
30647;SDS011;17683;53.360;9.736;2023-08-30T06:31:28;11.52;;;8.57;;
30647;SDS011;17683;53.360;9.736;2023-08-30T06:33:54;12.05;;;10.25;;
30647;SDS011;17683;53.360;9.736;2023-08-30T06:36:20;12.57;;;10.30;;
30647;SDS011;17683;53.360;9.736;2023-08-30T06:38:47;14.90;;;11.27;;
30647;SDS011;17683;53.360;9.736;2023-08-30T06:41:13;11.60;;;10.40;;
30647;SDS011;17683;53.360;9.736;2023-08-30T06:43:39;12.43;;;9.35;;
30647;SDS011;17683;53.360;9.736;2023-08-30T06:46:04;11.57;;;10.18;;
30647;SDS011;17683;53.360;9.736;2023-08-30T06:48:30;11.27;;;10.05;;
30647;SDS011;17683;53.360;9.736;2023-08-30T06:50:59;11.27;;;10.20;;
30647;SDS011;17683;53.360;9.736;2023-08-30T06:53:26;11.77;;;10.07;;
30647;SDS011;17683;53.360;9.736;2023-08-30T06:56:01;13.93;;;11.25;;
30647;SDS011;17683;53.360;9.736;2023-08-30T06:58:27;13.05;;;11.77;;
30647;SDS011;17683;53.360;9.736;2023-08-30T07:00:53;13.38;;;11.07;;
30647;SDS011;17683;53.360;9.736;2023-08-30T07:03:18;13.13;;;10.23;;
30647;SDS011;17683;53.360;9.736;2023-08-30T07:05:44;12.20;;;10.88;;
30647;SDS011;17683;53.360;9.736;2023-08-30T07:08:12;16.30;;;11.45;;
30647;SDS011;17683;53.360;9.736;2023-08-30T07:10:39;11.07;;;9.98;;
30647;SDS011;17683;53.360;9.736;2023-08-30T07:13:05;13.85;;;12.13;;
30647;SDS011;17683;53.360;9.736;2023-08-30T07:15:35;13.25;;;10.80;;
30647;SDS011;17683;53.360;9.736;2023-08-30T07:18:01;12.60;;;11.30;;
30647;SDS011;17683;53.360;9.736;2023-08-30T07:20:28;12.52;;;11.30;;
30647;SDS011;17683;53.360;9.736;2023-08-30T07:22:54;14.48;;;12.93;;
30647;SDS011;17683;53.360;9.736;2023-08-30T07:25:20;14.32;;;12.02;;
30647;SDS011;17683;53.360;9.736;2023-08-30T07:27:45;17.25;;;12.80;;
30647;SDS011;17683;53.360;9.736;2023-08-30T07:30:11;13.32;;;11.95;;
30647;SDS011;17683;53.360;9.736;2023-08-30T07:32:37;14.30;;;11.60;;
30647;SDS011;17683;53.360;9.736;2023-08-30T07:35:03;14.35;;;12.95;;
30647;SDS011;17683;53.360;9.736;2023-08-30T07:37:30;14.88;;;13.00;;
30647;SDS011;17683;53.360;9.736;2023-08-30T07:39:56;13.52;;;12.00;;
30647;SDS011;17683;53.360;9.736;2023-08-30T07:42:21;14.88;;;13.05;;
30647;SDS011;17683;53.360;9.736;2023-08-30T07:44:47;13.15;;;11.85;;
30647;SDS011;17683;53.360;9.736;2023-08-30T07:47:13;15.23;;;12.43;;
30647;SDS011;17683;53.360;9.736;2023-08-30T07:49:40;17.50;;;13.07;;
30647;SDS011;17683;53.360;9.736;2023-08-30T07:52:07;12.70;;;11.30;;
30647;SDS011;17683;53.360;9.736;2023-08-30T07:54:36;13.63;;;11.82;;
30647;SDS011;17683;53.360;9.736;2023-08-30T07:57:04;16.23;;;11.27;;
30647;SDS011;17683;53.360;9.736;2023-08-30T07:59:30;13.15;;;10.65;;
30647;SDS011;17683;53.360;9.736;2023-08-30T08:01:58;12.15;;;10.77;;
30647;SDS011;17683;53.360;9.736;2023-08-30T08:04:23;12.98;;;10.43;;
30647;SDS011;17683;53.360;9.736;2023-08-30T08:06:49;12.98;;;10.82;;
30647;SDS011;17683;53.360;9.736;2023-08-30T08:09:15;11.77;;;9.32;;
30647;SDS011;17683;53.360;9.736;2023-08-30T08:11:41;13.25;;;11.18;;
30647;SDS011;17683;53.360;9.736;2023-08-30T08:14:09;9.55;;;8.55;;
30647;SDS011;17683;53.360;9.736;2023-08-30T08:16:36;11.90;;;9.30;;
30647;SDS011;17683;53.360;9.736;2023-08-30T08:19:02;11.35;;;8.63;;
30647;SDS011;17683;53.360;9.736;2023-08-30T08:21:28;11.20;;;8.57;;
30647;SDS011;17683;53.360;9.736;2023-08-30T08:23:54;11.43;;;9.02;;
30647;SDS011;17683;53.360;9.736;2023-08-30T08:26:19;11.93;;;10.18;;
30647;SDS011;17683;53.360;9.736;2023-08-30T08:28:45;8.80;;;7.32;;
30647;SDS011;17683;53.360;9.736;2023-08-30T08:31:11;8.50;;;7.28;;
30647;SDS011;17683;53.360;9.736;2023-08-30T08:33:37;9.57;;;7.57;;
30647;SDS011;17683;53.360;9.736;2023-08-30T08:36:03;9.20;;;7.78;;
30647;SDS011;17683;53.360;9.736;2023-08-30T08:38:29;9.73;;;7.55;;
30647;SDS011;17683;53.360;9.736;2023-08-30T08:41:01;9.00;;;6.40;;
30647;SDS011;17683;53.360;9.736;2023-08-30T08:43:30;8.02;;;6.35;;
30647;SDS011;17683;53.360;9.736;2023-08-30T08:46:01;7.18;;;5.47;;
30647;SDS011;17683;53.360;9.736;2023-08-30T08:48:28;10.20;;;6.93;;
30647;SDS011;17683;53.360;9.736;2023-08-30T08:50:56;14.38;;;7.10;;
30647;SDS011;17683;53.360;9.736;2023-08-30T08:53:22;7.95;;;6.75;;
30647;SDS011;17683;53.360;9.736;2023-08-30T08:55:48;9.15;;;7.07;;
30647;SDS011;17683;53.360;9.736;2023-08-30T08:58:15;9.60;;;8.48;;
30647;SDS011;17683;53.360;9.736;2023-08-30T09:00:44;10.90;;;9.45;;
30647;SDS011;17683;53.360;9.736;2023-08-30T09:03:10;11.38;;;8.05;;
30647;SDS011;17683;53.360;9.736;2023-08-30T09:05:40;12.30;;;9.00;;
30647;SDS011;17683;53.360;9.736;2023-08-30T09:08:06;10.38;;;8.80;;
30647;SDS011;17683;53.360;9.736;2023-08-30T09:10:35;13.75;;;8.82;;
30647;SDS011;17683;53.360;9.736;2023-08-30T09:13:01;14.55;;;8.05;;
30647;SDS011;17683;53.360;9.736;2023-08-30T09:15:33;9.55;;;7.53;;
30647;SDS011;17683;53.360;9.736;2023-08-30T09:18:02;9.50;;;7.47;;
30647;SDS011;17683;53.360;9.736;2023-08-30T09:20:28;10.88;;;8.60;;
30647;SDS011;17683;53.360;9.736;2023-08-30T09:22:54;10.90;;;8.93;;
30647;SDS011;17683;53.360;9.736;2023-08-30T09:25:23;12.25;;;8.30;;
30647;SDS011;17683;53.360;9.736;2023-08-30T09:27:50;10.25;;;8.32;;
30647;SDS011;17683;53.360;9.736;2023-08-30T09:30:23;12.50;;;8.23;;
30647;SDS011;17683;53.360;9.736;2023-08-30T09:32:49;10.27;;;7.35;;
30647;SDS011;17683;53.360;9.736;2023-08-30T09:35:14;8.15;;;7.20;;
30647;SDS011;17683;53.360;9.736;2023-08-30T09:37:40;9.40;;;7.43;;
30647;SDS011;17683;53.360;9.736;2023-08-30T09:40:09;9.95;;;7.25;;
30647;SDS011;17683;53.360;9.736;2023-08-30T09:42:39;8.50;;;7.60;;
30647;SDS011;17683;53.360;9.736;2023-08-30T09:45:16;8.02;;;6.75;;
30647;SDS011;17683;53.360;9.736;2023-08-30T09:47:47;10.25;;;6.43;;
30647;SDS011;17683;53.360;9.736;2023-08-30T09:50:13;9.07;;;5.93;;
30647;SDS011;17683;53.360;9.736;2023-08-30T09:52:42;7.07;;;5.30;;
30647;SDS011;17683;53.360;9.736;2023-08-30T09:55:08;8.63;;;5.45;;
30647;SDS011;17683;53.360;9.736;2023-08-30T09:57:34;8.23;;;4.90;;
30647;SDS011;17683;53.360;9.736;2023-08-30T10:00:02;8.95;;;5.65;;
30647;SDS011;17683;53.360;9.736;2023-08-30T10:02:29;6.70;;;5.80;;
30647;SDS011;17683;53.360;9.736;2023-08-30T10:04:56;6.55;;;5.20;;
30647;SDS011;17683;53.360;9.736;2023-08-30T10:07:23;8.82;;;5.35;;
30647;SDS011;17683;53.360;9.736;2023-08-30T10:09:50;6.82;;;5.15;;
30647;SDS011;17683;53.360;9.736;2023-08-30T10:12:20;7.68;;;4.82;;
30647;SDS011;17683;53.360;9.736;2023-08-30T10:14:49;8.07;;;5.43;;
30647;SDS011;17683;53.360;9.736;2023-08-30T10:17:16;12.05;;;6.63;;
30647;SDS011;17683;53.360;9.736;2023-08-30T10:19:46;10.55;;;7.18;;
30647;SDS011;17683;53.360;9.736;2023-08-30T10:22:12;8.13;;;5.57;;
30647;SDS011;17683;53.360;9.736;2023-08-30T10:24:46;8.73;;;5.60;;
30647;SDS011;17683;53.360;9.736;2023-08-30T10:27:16;10.43;;;6.25;;
30647;SDS011;17683;53.360;9.736;2023-08-30T10:29:43;8.30;;;6.85;;
30647;SDS011;17683;53.360;9.736;2023-08-30T10:32:10;8.88;;;5.90;;
30647;SDS011;17683;53.360;9.736;2023-08-30T10:34:36;8.95;;;6.65;;
30647;SDS011;17683;53.360;9.736;2023-08-30T10:37:03;8.20;;;5.72;;
30647;SDS011;17683;53.360;9.736;2023-08-30T10:39:34;7.53;;;6.13;;
30647;SDS011;17683;53.360;9.736;2023-08-30T10:42:06;13.73;;;7.00;;
30647;SDS011;17683;53.360;9.736;2023-08-30T10:44:52;7.47;;;6.45;;
30647;SDS011;17683;53.360;9.736;2023-08-30T10:47:34;6.93;;;5.72;;
30647;SDS011;17683;53.360;9.736;2023-08-30T10:50:07;8.73;;;5.25;;
30647;SDS011;17683;53.360;9.736;2023-08-30T10:52:34;6.07;;;5.00;;
30647;SDS011;17683;53.360;9.736;2023-08-30T10:55:10;7.10;;;5.20;;
30647;SDS011;17683;53.360;9.736;2023-08-30T10:57:41;8.23;;;6.45;;
30647;SDS011;17683;53.360;9.736;2023-08-30T11:00:09;9.50;;;5.53;;
30647;SDS011;17683;53.360;9.736;2023-08-30T11:02:46;7.72;;;6.05;;
30647;SDS011;17683;53.360;9.736;2023-08-30T11:05:15;6.18;;;4.93;;
30647;SDS011;17683;53.360;9.736;2023-08-30T11:07:43;8.85;;;6.50;;
30647;SDS011;17683;53.360;9.736;2023-08-30T11:10:09;6.68;;;4.85;;
30647;SDS011;17683;53.360;9.736;2023-08-30T11:12:35;6.22;;;4.55;;
30647;SDS011;17683;53.360;9.736;2023-08-30T11:15:01;6.85;;;5.55;;
30647;SDS011;17683;53.360;9.736;2023-08-30T11:17:27;7.85;;;5.32;;
30647;SDS011;17683;53.360;9.736;2023-08-30T11:19:57;7.00;;;5.55;;
30647;SDS011;17683;53.360;9.736;2023-08-30T11:22:30;8.43;;;5.30;;
30647;SDS011;17683;53.360;9.736;2023-08-30T11:24:56;7.93;;;5.38;;
30647;SDS011;17683;53.360;9.736;2023-08-30T11:27:21;7.07;;;4.50;;
30647;SDS011;17683;53.360;9.736;2023-08-30T11:29:47;6.95;;;4.72;;
30647;SDS011;17683;53.360;9.736;2023-08-30T11:32:13;8.43;;;5.45;;
30647;SDS011;17683;53.360;9.736;2023-08-30T11:34:38;8.88;;;6.10;;
30647;SDS011;17683;53.360;9.736;2023-08-30T11:37:04;8.50;;;6.25;;
30647;SDS011;17683;53.360;9.736;2023-08-30T11:39:30;7.85;;;5.68;;
30647;SDS011;17683;53.360;9.736;2023-08-30T11:41:56;6.72;;;5.65;;
30647;SDS011;17683;53.360;9.736;2023-08-30T11:44:24;7.05;;;5.53;;
30647;SDS011;17683;53.360;9.736;2023-08-30T11:47:00;15.85;;;6.85;;
30647;SDS011;17683;53.360;9.736;2023-08-30T11:49:26;7.50;;;5.05;;
30647;SDS011;17683;53.360;9.736;2023-08-30T11:51:53;6.78;;;5.25;;
30647;SDS011;17683;53.360;9.736;2023-08-30T11:54:21;7.60;;;6.38;;
30647;SDS011;17683;53.360;9.736;2023-08-30T11:56:49;7.10;;;5.05;;
30647;SDS011;17683;53.360;9.736;2023-08-30T11:59:21;8.75;;;5.47;;
30647;SDS011;17683;53.360;9.736;2023-08-30T12:01:52;5.03;;;4.53;;
30647;SDS011;17683;53.360;9.736;2023-08-30T12:04:18;6.63;;;5.25;;
30647;SDS011;17683;53.360;9.736;2023-08-30T12:06:50;7.15;;;5.38;;
30647;SDS011;17683;53.360;9.736;2023-08-30T12:09:21;7.32;;;4.72;;
30647;SDS011;17683;53.360;9.736;2023-08-30T12:11:49;7.50;;;5.13;;
30647;SDS011;17683;53.360;9.736;2023-08-30T12:14:15;6.30;;;5.15;;
30647;SDS011;17683;53.360;9.736;2023-08-30T12:16:41;6.90;;;5.40;;
30647;SDS011;17683;53.360;9.736;2023-08-30T12:19:08;7.00;;;5.07;;
30647;SDS011;17683;53.360;9.736;2023-08-30T12:21:44;5.70;;;4.50;;
30647;SDS011;17683;53.360;9.736;2023-08-30T12:24:12;6.88;;;4.57;;
30647;SDS011;17683;53.360;9.736;2023-08-30T12:26:38;8.63;;;4.57;;
30647;SDS011;17683;53.360;9.736;2023-08-30T12:29:07;6.43;;;4.60;;
30647;SDS011;17683;53.360;9.736;2023-08-30T12:31:32;5.40;;;3.53;;
30647;SDS011;17683;53.360;9.736;2023-08-30T12:33:58;6.97;;;4.47;;
30647;SDS011;17683;53.360;9.736;2023-08-30T12:36:24;6.53;;;4.03;;
30647;SDS011;17683;53.360;9.736;2023-08-30T12:38:50;6.72;;;4.15;;
30647;SDS011;17683;53.360;9.736;2023-08-30T12:41:15;6.88;;;5.35;;
30647;SDS011;17683;53.360;9.736;2023-08-30T12:43:41;4.88;;;4.38;;
30647;SDS011;17683;53.360;9.736;2023-08-30T12:46:07;10.05;;;5.40;;
30647;SDS011;17683;53.360;9.736;2023-08-30T12:48:33;5.90;;;3.92;;
30647;SDS011;17683;53.360;9.736;2023-08-30T12:50:58;6.72;;;4.18;;
30647;SDS011;17683;53.360;9.736;2023-08-30T12:53:24;6.13;;;4.00;;
30647;SDS011;17683;53.360;9.736;2023-08-30T12:55:50;6.82;;;4.22;;
30647;SDS011;17683;53.360;9.736;2023-08-30T12:58:15;8.07;;;4.35;;
30647;SDS011;17683;53.360;9.736;2023-08-30T13:00:41;5.80;;;3.95;;
30647;SDS011;17683;53.360;9.736;2023-08-30T13:03:07;8.07;;;4.53;;
30647;SDS011;17683;53.360;9.736;2023-08-30T13:05:33;4.80;;;4.05;;
30647;SDS011;17683;53.360;9.736;2023-08-30T13:07:59;7.05;;;3.70;;
30647;SDS011;17683;53.360;9.736;2023-08-30T13:10:24;7.68;;;4.00;;
30647;SDS011;17683;53.360;9.736;2023-08-30T13:12:50;6.28;;;4.18;;
30647;SDS011;17683;53.360;9.736;2023-08-30T13:15:16;7.90;;;4.35;;
30647;SDS011;17683;53.360;9.736;2023-08-30T13:17:42;4.95;;;4.15;;
30647;SDS011;17683;53.360;9.736;2023-08-30T13:20:08;5.20;;;3.45;;
30647;SDS011;17683;53.360;9.736;2023-08-30T13:22:34;6.18;;;3.85;;
30647;SDS011;17683;53.360;9.736;2023-08-30T13:25:01;5.55;;;3.55;;
30647;SDS011;17683;53.360;9.736;2023-08-30T13:27:28;4.68;;;3.78;;
30647;SDS011;17683;53.360;9.736;2023-08-30T13:29:54;5.47;;;4.25;;
30647;SDS011;17683;53.360;9.736;2023-08-30T13:32:20;5.97;;;3.53;;
30647;SDS011;17683;53.360;9.736;2023-08-30T13:34:46;5.80;;;3.13;;
30647;SDS011;17683;53.360;9.736;2023-08-30T13:37:12;5.03;;;3.33;;
30647;SDS011;17683;53.360;9.736;2023-08-30T13:39:38;6.00;;;4.07;;
30647;SDS011;17683;53.360;9.736;2023-08-30T13:42:04;4.40;;;3.47;;
30647;SDS011;17683;53.360;9.736;2023-08-30T13:44:30;7.82;;;3.35;;
30647;SDS011;17683;53.360;9.736;2023-08-30T13:46:57;5.30;;;3.65;;
30647;SDS011;17683;53.360;9.736;2023-08-30T13:49:23;8.00;;;3.97;;
30647;SDS011;17683;53.360;9.736;2023-08-30T13:51:48;5.15;;;3.60;;
30647;SDS011;17683;53.360;9.736;2023-08-30T13:54:14;5.90;;;3.50;;
30647;SDS011;17683;53.360;9.736;2023-08-30T13:56:40;8.88;;;4.32;;
30647;SDS011;17683;53.360;9.736;2023-08-30T13:59:07;5.22;;;3.42;;
30647;SDS011;17683;53.360;9.736;2023-08-30T14:01:33;4.75;;;3.25;;
30647;SDS011;17683;53.360;9.736;2023-08-30T14:04:02;4.57;;;3.40;;
30647;SDS011;17683;53.360;9.736;2023-08-30T14:06:30;4.50;;;3.45;;
30647;SDS011;17683;53.360;9.736;2023-08-30T14:08:56;6.43;;;3.55;;
30647;SDS011;17683;53.360;9.736;2023-08-30T14:11:22;3.47;;;2.60;;
30647;SDS011;17683;53.360;9.736;2023-08-30T14:13:48;4.90;;;3.47;;
30647;SDS011;17683;53.360;9.736;2023-08-30T14:16:13;7.32;;;3.78;;
30647;SDS011;17683;53.360;9.736;2023-08-30T14:18:39;4.55;;;3.08;;
30647;SDS011;17683;53.360;9.736;2023-08-30T14:21:05;4.10;;;3.33;;
30647;SDS011;17683;53.360;9.736;2023-08-30T14:23:31;7.90;;;3.75;;
30647;SDS011;17683;53.360;9.736;2023-08-30T14:25:58;7.82;;;3.55;;
30647;SDS011;17683;53.360;9.736;2023-08-30T14:28:25;5.05;;;3.33;;
30647;SDS011;17683;53.360;9.736;2023-08-30T14:30:51;3.97;;;3.22;;
30647;SDS011;17683;53.360;9.736;2023-08-30T14:33:17;6.75;;;3.38;;
30647;SDS011;17683;53.360;9.736;2023-08-30T14:35:43;6.20;;;4.00;;
30647;SDS011;17683;53.360;9.736;2023-08-30T14:38:09;5.25;;;3.70;;
30647;SDS011;17683;53.360;9.736;2023-08-30T14:40:34;5.50;;;3.40;;
30647;SDS011;17683;53.360;9.736;2023-08-30T14:43:02;4.97;;;3.75;;
30647;SDS011;17683;53.360;9.736;2023-08-30T14:45:28;7.75;;;3.90;;
30647;SDS011;17683;53.360;9.736;2023-08-30T14:47:55;4.13;;;3.42;;
30647;SDS011;17683;53.360;9.736;2023-08-30T14:50:20;5.72;;;3.50;;
30647;SDS011;17683;53.360;9.736;2023-08-30T14:52:46;8.45;;;3.75;;
30647;SDS011;17683;53.360;9.736;2023-08-30T14:55:11;4.35;;;3.88;;